Startpagina
METAR-TAF:

METAR-TAF

Vliegvelden :

Karachi, Pakistan

breedte: 24-54N, lengte: 067-08E, hoogte: 21 m

Actueel weer

Dit bericht is 18 minuten geleden gemaakt, om 04:30 UTC
Wind 8 kt uit het noordoosten
Temperatuur 21°C
Vochtigheid 25%
Druk 1020 hPa
Zicht: 4000 m
Heiigheid

METAR: OPKC 090430Z 05008KT 4000 HZ NSC 21/00 Q1020 NOSIG

Tijdstip: 09:48 (04:48 UTC)

Verwachting

Dit bericht is 7 uur en het 18 minuten geleden gemaakt, om 21:30 UTC
Verwachting geldig van 09 om 00 UTC tot 10 om 06 UTC
Wind 10 kt uit het noordoosten
Zicht: 6000 m
Tijdelijke
van 09 om 00 UTC tot 09 om 04 UTC
Wind 5 kt uit het noordnoordoosten
Zicht: 3000 m
rook
Tijdelijke
van 10 om 00 UTC tot 10 om 04 UTC
Wind 3 kt uit variabele richting
Zicht: 2500 m
rook

TAF: OPKC 082130Z 0900/1006 05010KT 6000 NSC TEMPO 0900/0904 03005KT 3000 FU NSC TEMPO 1000/1004 VRB03KT 2500 FU NSC

Waarnemingen en weersverwachtingen van meer dan 4000 vliegvelden (METAR en TAF).

De beschikbare stations zijn de gele en rode punten op de kaart.

Ga met uw muis naar het station om de naam te zien.

Klik dan om waarnemingen en weersverwachtingen te zien.

kaart wijzigen: klik op de groene knoppen met een zwart kruis om in te zoomen, op de groene knop met een streepje om uit te zoomen of op de groene pijlen voor aangrenzende kaarten.


METAR-TAF: